Time;durP1;ratioP1;P1;durP2;ratioP2;P2;SDS_P1;SDS_P2;PMS_P1;PMS_P2;Temp;Humidity;BMP_temperature;BMP_pressure;BME280_temperature;BME280_humidity;BME280_pressure;Samples;Min_cycle;Max_cycle;Signal;HPM_P1;HPM_P2
2021/05/12 00:01:23;;;;;;;8.15;3.85;;;;;;;;;;5060651;28;20634;-56
2021/05/12 00:03:51;;;;;;;17.20;9.02;;;;;;;;;;5060925;28;20056;-51
2021/05/12 00:06:17;;;;;;;19.42;8.82;;;;;;;;;;5060543;28;21333;-58
2021/05/12 00:08:43;;;;;;;14.52;4.03;;;;;;;;;;5060708;28;20420;-52
2021/05/12 00:11:09;;;;;;;6.85;1.73;;;;;;;;;;5060483;28;20090;-53
2021/05/12 00:13:35;;;;;;;9.23;4.35;;;;;;;;;;5099460;28;20031;-60
2021/05/12 00:16:01;;;;;;;12.63;5.95;;;;;;;;;;5113052;28;20047;-59
2021/05/12 00:18:33;;;;;;;13.77;6.10;;;;;;;;;;5113137;28;20024;-61
2021/05/12 00:21:03;;;;;;;8.35;4.63;;;;;;;;;;5113331;28;20403;-61
2021/05/12 00:23:40;;;;;;;7.30;1.73;;;;;;;;;;5113179;28;20099;-58
2021/05/12 00:26:07;;;;;;;6.07;2.40;;;;;;;;;;5113029;28;20026;-54
2021/05/12 00:28:33;;;;;;;98.47;60.53;;;;;;;;;;5113013;28;20020;-57
2021/05/12 00:30:59;;;;;;;14.02;5.32;;;;;;;;;;5112967;28;20467;-67
2021/05/12 00:33:27;;;;;;;13.82;7.15;;;;;;;;;;5113029;28;20383;-66
2021/05/12 00:35:53;;;;;;;14.93;7.32;;;;;;;;;;5114676;28;20035;-67
2021/05/12 00:38:19;;;;;;;13.82;5.03;;;;;;;;;;5115551;28;20463;-53
2021/05/12 00:40:45;;;;;;;29.20;15.75;;;;;;;;;;5116502;28;20035;-65
2021/05/12 00:43:12;;;;;;;7.78;4.05;;;;;;;;;;5116610;28;20115;-64
2021/05/12 00:45:40;;;;;;;8.25;4.72;;;;;;;;;;5116406;28;20028;-68
2021/05/12 00:48:06;;;;;;;48.83;26.85;;;;;;;;;;5116588;28;20384;-66
2021/05/12 00:50:33;;;;;;;9.13;4.93;;;;;;;;;;5116304;28;20486;-53
2021/05/12 00:53:00;;;;;;;4.63;2.65;;;;;;;;;;5116321;28;20115;-64
2021/05/12 00:55:27;;;;;;;14.32;6.30;;;;;;;;;;5116111;28;20031;-63
2021/05/12 00:57:53;;;;;;;14.23;4.72;;;;;;;;;;5116276;28;20027;-55
2021/05/12 01:00:20;;;;;;;6.43;2.22;;;;;;;;;;5116334;28;20076;-59
2021/05/12 01:02:46;;;;;;;4.43;1.83;;;;;;;;;;5116204;28;20464;-62
2021/05/12 01:05:30;;;;;;;6.68;1.63;;;;;;;;;;5116144;28;20028;-62
2021/05/12 01:07:56;;;;;;;7.93;2.08;;;;;;;;;;5116015;28;20024;-63
2021/05/12 01:10:23;;;;;;;7.07;2.38;;;;;;;;;;5115950;28;20024;-62
2021/05/12 01:12:50;;;;;;;8.52;2.50;;;;;;;;;;5116247;28;20149;-61
2021/05/12 01:15:16;;;;;;;3.67;1.70;;;;;;;;;;5115816;28;20111;-60
2021/05/12 01:17:42;;;;;;;5.30;1.63;;;;;;;;;;5115772;28;20111;-62
2021/05/12 01:20:10;;;;;;;27.95;9.75;;;;;;;;;;5115826;28;20027;-63
2021/05/12 01:22:36;;;;;;;28.35;13.90;;;;;;;;;;5115670;28;20051;-62
2021/05/12 01:25:03;;;;;;;9.07;3.58;;;;;;;;;;5115751;28;20479;-61
2021/05/12 01:27:29;;;;;;;7.00;3.25;;;;;;;;;;5115733;28;20019;-63
2021/05/12 01:29:55;;;;;;;10.50;5.25;;;;;;;;;;5115693;28;20098;-61
2021/05/12 01:32:21;;;;;;;26.27;15.32;;;;;;;;;;5115556;28;20015;-61
2021/05/12 01:34:47;;;;;;;44.78;24.90;;;;;;;;;;5115513;28;20368;-61
2021/05/12 01:37:13;;;;;;;59.90;29.55;;;;;;;;;;5115436;28;20111;-63
2021/05/12 01:39:39;;;;;;;27.13;15.40;;;;;;;;;;5115457;28;20479;-61
2021/05/12 01:42:06;;;;;;;17.33;10.07;;;;;;;;;;5115331;28;20019;-61
2021/05/12 01:44:34;;;;;;;63.70;36.75;;;;;;;;;;5115387;28;20066;-60
2021/05/12 01:47:00;;;;;;;13.02;5.90;;;;;;;;;;5115177;28;20027;-63
2021/05/12 01:49:29;;;;;;;7.78;3.90;;;;;;;;;;5115318;28;20020;-61
2021/05/12 01:51:55;;;;;;;4.90;2.92;;;;;;;;;;5115259;28;20531;-63
2021/05/12 01:54:21;;;;;;;4.07;1.67;;;;;;;;;;5115037;28;20456;-63
2021/05/12 01:56:47;;;;;;;9.50;4.13;;;;;;;;;;5115248;28;20051;-62
2021/05/12 01:59:14;;;;;;;10.55;5.03;;;;;;;;;;5115203;28;20028;-60
2021/05/12 02:01:40;;;;;;;9.07;4.32;;;;;;;;;;5115034;28;20073;-63
2021/05/12 02:04:07;;;;;;;15.30;4.93;;;;;;;;;;5115013;28;20027;-60
2021/05/12 02:06:36;;;;;;;10.10;3.60;;;;;;;;;;5114984;28;20107;-62
2021/05/12 02:09:04;;;;;;;8.77;2.38;;;;;;;;;;5115197;28;20471;-63
2021/05/12 02:11:30;;;;;;;5.93;2.80;;;;;;;;;;5114650;28;20048;-63
2021/05/12 02:13:57;;;;;;;6.85;2.30;;;;;;;;;;5115057;28;20019;-63
2021/05/12 02:16:23;;;;;;;6.20;3.08;;;;;;;;;;5114840;28;20480;-63
2021/05/12 02:18:49;;;;;;;5.60;2.38;;;;;;;;;;5114804;28;20023;-64
2021/05/12 02:21:17;;;;;;;4.55;3.20;;;;;;;;;;5114737;28;20047;-63
2021/05/12 02:23:43;;;;;;;11.68;3.80;;;;;;;;;;5114539;28;20645;-62
2021/05/12 02:26:09;;;;;;;5.25;2.20;;;;;;;;;;5114644;28;20027;-64
2021/05/12 02:28:35;;;;;;;11.30;2.63;;;;;;;;;;5114667;28;20018;-66
2021/05/12 02:31:01;;;;;;;9.20;3.60;;;;;;;;;;5114596;28;20028;-65
2021/05/12 02:33:29;;;;;;;5.88;2.67;;;;;;;;;;5114549;28;20391;-64
2021/05/12 02:35:55;;;;;;;9.82;3.05;;;;;;;;;;5114424;28;20118;-64
2021/05/12 02:38:23;;;;;;;4.60;2.10;;;;;;;;;;5114486;28;20044;-62
2021/05/12 02:40:49;;;;;;;5.38;2.05;;;;;;;;;;5114402;28;20027;-62
2021/05/12 02:43:15;;;;;;;8.02;2.58;;;;;;;;;;5114432;28;20494;-61
2021/05/12 02:45:41;;;;;;;12.25;2.75;;;;;;;;;;5114405;28;20053;-64
2021/05/12 02:48:07;;;;;;;10.43;2.40;;;;;;;;;;5114181;28;20016;-62
2021/05/12 02:50:35;;;;;;;4.57;2.55;;;;;;;;;;5114304;28;20028;-62
2021/05/12 02:53:01;;;;;;;5.88;1.90;;;;;;;;;;5114097;28;20027;-61
2021/05/12 02:55:28;;;;;;;2.30;1.92;;;;;;;;;;5114010;28;20088;-61
2021/05/12 02:57:55;;;;;;;13.30;7.72;;;;;;;;;;5113557;28;20483;-62
2021/05/12 03:00:23;;;;;;;8.40;2.53;;;;;;;;;;5114033;28;20391;-63
2021/05/12 03:02:51;;;;;;;13.57;4.10;;;;;;;;;;5113986;28;20061;-61
2021/05/12 03:05:18;;;;;;;8.45;2.40;;;;;;;;;;5113999;28;20020;-62
2021/05/12 03:07:45;;;;;;;8.38;4.45;;;;;;;;;;5113834;28;20034;-60
2021/05/12 03:10:13;;;;;;;9.02;3.30;;;;;;;;;;5113836;28;20031;-62
2021/05/12 03:12:39;;;;;;;6.22;2.88;;;;;;;;;;5112445;28;20089;-60
2021/05/12 03:15:08;;;;;;;7.10;2.47;;;;;;;;;;5113873;28;20040;-61
2021/05/12 03:17:34;;;;;;;7.65;2.92;;;;;;;;;;5113757;28;20379;-61
2021/05/12 03:20:00;;;;;;;12.48;4.68;;;;;;;;;;5113806;28;20023;-63
2021/05/12 03:22:26;;;;;;;31.05;18.52;;;;;;;;;;5112639;28;20040;-64
2021/05/12 03:24:52;;;;;;;6.38;3.10;;;;;;;;;;5113702;28;20102;-61
2021/05/12 03:27:18;;;;;;;9.13;4.32;;;;;;;;;;5113652;28;20031;-61
2021/05/12 03:29:44;;;;;;;8.23;3.90;;;;;;;;;;5113631;28;20023;-60
2021/05/12 03:32:10;;;;;;;8.40;4.82;;;;;;;;;;5113547;28;20020;-61
2021/05/12 03:34:36;;;;;;;7.97;3.55;;;;;;;;;;5113592;28;20025;-58
2021/05/12 03:37:03;;;;;;;12.60;4.10;;;;;;;;;;5113498;28;20027;-60
2021/05/12 03:39:29;;;;;;;12.85;7.15;;;;;;;;;;5113411;28;20024;-62
2021/05/12 03:41:56;;;;;;;7.60;2.00;;;;;;;;;;5113421;28;20027;-62
2021/05/12 03:44:22;;;;;;;6.55;2.42;;;;;;;;;;5113539;28;20031;-61
2021/05/12 03:46:48;;;;;;;5.70;2.53;;;;;;;;;;5113557;28;20027;-59
2021/05/12 03:49:14;;;;;;;14.70;4.45;;;;;;;;;;5113478;28;20015;-57
2021/05/12 03:51:40;;;;;;;4.70;2.20;;;;;;;;;;5113543;28;20028;-60
2021/05/12 03:54:11;;;;;;;15.82;8.25;;;;;;;;;;5113448;28;20131;-62
2021/05/12 03:56:37;;;;;;;10.52;3.95;;;;;;;;;;5113666;28;20042;-62
2021/05/12 03:59:03;;;;;;;29.58;14.02;;;;;;;;;;5113625;28;20024;-66
2021/05/12 04:01:30;;;;;;;142.15;64.05;;;;;;;;;;5113318;28;20375;-62
2021/05/12 04:03:56;;;;;;;55.80;27.55;;;;;;;;;;5113165;28;20026;-63
2021/05/12 04:06:22;;;;;;;43.03;25.85;;;;;;;;;;5113279;28;20046;-61
2021/05/12 04:08:48;;;;;;;11.82;5.60;;;;;;;;;;5113288;28;20030;-60
2021/05/12 04:11:14;;;;;;;9.60;5.97;;;;;;;;;;5115372;28;20118;-59
2021/05/12 04:13:40;;;;;;;14.40;5.35;;;;;;;;;;5117182;28;20032;-62
2021/05/12 04:16:06;;;;;;;8.75;4.10;;;;;;;;;;5116936;28;20067;-62
2021/05/12 04:18:32;;;;;;;14.88;5.10;;;;;;;;;;5116870;28;20027;-62
2021/05/12 04:20:58;;;;;;;13.05;4.97;;;;;;;;;;5117042;28;20055;-63
2021/05/12 04:23:25;;;;;;;12.32;5.93;;;;;;;;;;5116940;28;20020;-63
2021/05/12 04:25:51;;;;;;;8.23;4.38;;;;;;;;;;5116949;28;20035;-64
2021/05/12 04:28:17;;;;;;;12.45;7.15;;;;;;;;;;5116892;28;20375;-64
2021/05/12 04:30:43;;;;;;;15.60;6.63;;;;;;;;;;5116983;28;20028;-58
2021/05/12 04:33:09;;;;;;;10.68;3.47;;;;;;;;;;5116871;28;20441;-58
2021/05/12 04:35:35;;;;;;;4.75;2.17;;;;;;;;;;5116767;28;20070;-61
2021/05/12 04:38:01;;;;;;;6.82;3.20;;;;;;;;;;5116585;28;20392;-60
2021/05/12 04:40:27;;;;;;;5.97;3.17;;;;;;;;;;5116926;28;20367;-61
2021/05/12 04:42:54;;;;;;;5.97;2.83;;;;;;;;;;5116706;28;20035;-60
2021/05/12 04:45:20;;;;;;;6.40;3.47;;;;;;;;;;5116602;28;20031;-60
2021/05/12 04:47:56;;;;;;;8.40;3.13;;;;;;;;;;5116464;28;20070;-60
2021/05/12 04:50:33;;;;;;;8.30;2.22;;;;;;;;;;5116445;28;20027;-60
2021/05/12 04:52:59;;;;;;;5.32;2.30;;;;;;;;;;5116505;28;20020;-60
2021/05/12 04:55:26;;;;;;;4.45;2.50;;;;;;;;;;5116285;28;20036;-59
2021/05/12 04:57:52;;;;;;;11.25;2.88;;;;;;;;;;5116389;28;20185;-59
2021/05/12 05:00:20;;;;;;;7.90;2.65;;;;;;;;;;5116309;28;20084;-58
2021/05/12 05:02:46;;;;;;;9.02;2.58;;;;;;;;;;5114921;28;20126;-59
2021/05/12 05:05:13;;;;;;;9.15;2.53;;;;;;;;;;5116139;28;20023;-59
2021/05/12 05:07:40;;;;;;;6.72;2.40;;;;;;;;;;5116170;28;20019;-60
2021/05/12 05:10:06;;;;;;;4.72;2.55;;;;;;;;;;5116056;28;20036;-61
2021/05/12 05:12:33;;;;;;;11.88;2.60;;;;;;;;;;5115959;28;20075;-61
2021/05/12 05:14:59;;;;;;;5.32;2.22;;;;;;;;;;5115873;28;20115;-66
2021/05/12 05:17:26;;;;;;;7.68;3.10;;;;;;;;;;5115389;28;20019;-61
2021/05/12 05:19:55;;;;;;;13.80;5.30;;;;;;;;;;5115817;28;20024;-58
2021/05/12 05:22:24;;;;;;;25.05;15.90;;;;;;;;;;5115385;28;20107;-61
2021/05/12 05:24:50;;;;;;;26.60;17.27;;;;;;;;;;5115734;28;20016;-51
2021/05/12 05:27:16;;;;;;;15.90;7.70;;;;;;;;;;5115731;28;20027;-62
2021/05/12 05:29:42;;;;;;;20.77;9.75;;;;;;;;;;5115606;28;20016;-58
2021/05/12 05:32:08;;;;;;;11.75;5.07;;;;;;;;;;5115444;28;20028;-62
2021/05/12 05:34:35;;;;;;;18.30;7.05;;;;;;;;;;5115643;28;20024;-61
2021/05/12 05:37:01;;;;;;;13.15;6.63;;;;;;;;;;5115454;28;20028;-60
2021/05/12 05:39:35;;;;;;;16.77;9.43;;;;;;;;;;5115825;28;20426;-60
2021/05/12 05:42:02;;;;;;;17.38;6.32;;;;;;;;;;5115299;28;20027;-60
2021/05/12 05:44:28;;;;;;;17.23;9.88;;;;;;;;;;5115395;28;20043;-60
2021/05/12 05:46:58;;;;;;;16.33;10.13;;;;;;;;;;5114004;28;20388;-60
2021/05/12 05:49:25;;;;;;;24.63;9.13;;;;;;;;;;5115275;28;20043;-60
2021/05/12 05:51:52;;;;;;;17.75;5.85;;;;;;;;;;5115276;28;20027;-62
2021/05/12 05:54:18;;;;;;;30.35;6.50;;;;;;;;;;5115139;28;20024;-60
2021/05/12 05:56:46;;;;;;;29.00;11.13;;;;;;;;;;5114919;28;20536;-64
2021/05/12 05:59:13;;;;;;;29.75;12.00;;;;;;;;;;5115251;28;20026;-63
2021/05/12 06:01:39;;;;;;;39.47;23.60;;;;;;;;;;5115062;28;20115;-61
2021/05/12 06:04:06;;;;;;;70.78;38.75;;;;;;;;;;5114926;28;20016;-62
2021/05/12 06:06:32;;;;;;;17.05;7.03;;;;;;;;;;5115209;28;20028;-62
2021/05/12 06:08:58;;;;;;;96.18;62.70;;;;;;;;;;5115113;28;20023;-63
2021/05/12 06:11:24;;;;;;;30.90;15.30;;;;;;;;;;5114516;28;20126;-64
2021/05/12 06:13:51;;;;;;;17.58;9.00;;;;;;;;;;5114909;28;20365;-63
2021/05/12 06:16:17;;;;;;;20.65;9.13;;;;;;;;;;5114626;28;20491;-61
2021/05/12 06:18:44;;;;;;;16.48;9.98;;;;;;;;;;5114533;28;20031;-60
2021/05/12 06:21:11;;;;;;;17.00;6.97;;;;;;;;;;5114761;28;20379;-59
2021/05/12 06:23:37;;;;;;;23.33;8.02;;;;;;;;;;5114786;28;20027;-61
2021/05/12 06:26:12;;;;;;;14.80;5.78;;;;;;;;;;5114890;28;20026;-61
2021/05/12 06:28:38;;;;;;;26.20;15.95;;;;;;;;;;5114685;28;20472;-61
2021/05/12 06:31:04;;;;;;;24.30;13.88;;;;;;;;;;5114642;28;20083;-61
2021/05/12 06:33:30;;;;;;;24.88;8.05;;;;;;;;;;5113622;28;20016;-61
2021/05/12 06:35:56;;;;;;;17.42;6.22;;;;;;;;;;5114507;28;20122;-59
2021/05/12 06:38:23;;;;;;;10.90;5.75;;;;;;;;;;5114502;28;20023;-61
2021/05/12 06:40:49;;;;;;;14.50;5.70;;;;;;;;;;5114398;28;20093;-61
2021/05/12 06:43:16;;;;;;;27.35;5.45;;;;;;;;;;5114430;28;20016;-51
2021/05/12 06:45:42;;;;;;;16.45;5.35;;;;;;;;;;5114569;28;20062;-59
2021/05/12 06:48:08;;;;;;;16.20;4.35;;;;;;;;;;5114208;28;20024;-64
2021/05/12 06:50:34;;;;;;;24.92;5.00;;;;;;;;;;5114673;28;20045;-62
2021/05/12 06:53:00;;;;;;;26.95;4.45;;;;;;;;;;5114448;28;20043;-60
2021/05/12 06:55:27;;;;;;;9.95;3.85;;;;;;;;;;5114104;28;20028;-58
2021/05/12 06:57:53;;;;;;;16.55;4.05;;;;;;;;;;5114059;28;20032;-57
2021/05/12 07:00:20;;;;;;;23.38;13.05;;;;;;;;;;5114085;28;20016;-55
2021/05/12 07:02:46;;;;;;;78.65;50.22;;;;;;;;;;5114002;28;20024;-55
2021/05/12 07:05:16;;;;;;;53.78;29.35;;;;;;;;;;5113920;28;20511;-56
2021/05/12 07:07:42;;;;;;;74.03;22.50;;;;;;;;;;5113971;28;20459;-56
2021/05/12 07:10:09;;;;;;;66.80;19.08;;;;;;;;;;5113829;28;20052;-55
2021/05/12 07:12:36;;;;;;;15.52;5.00;;;;;;;;;;5113807;28;20051;-56
2021/05/12 07:15:03;;;;;;;30.10;11.50;;;;;;;;;;5113882;28;20031;-56
2021/05/12 07:17:29;;;;;;;33.30;12.23;;;;;;;;;;5113942;28;20020;-56
2021/05/12 07:19:56;;;;;;;18.63;7.65;;;;;;;;;;5113801;28;20032;-56
2021/05/12 07:22:22;;;;;;;19.45;9.07;;;;;;;;;;5113950;28;20098;-56
2021/05/12 07:24:49;;;;;;;33.03;7.13;;;;;;;;;;5113749;28;20020;-56
2021/05/12 07:27:15;;;;;;;14.80;6.20;;;;;;;;;;5114201;28;20012;-55
2021/05/12 07:29:41;;;;;;;15.65;5.30;;;;;;;;;;5113755;28;20034;-56
2021/05/12 07:32:08;;;;;;;14.55;4.78;;;;;;;;;;5113755;28;20031;-56
2021/05/12 07:34:34;;;;;;;19.85;6.03;;;;;;;;;;5113756;28;20034;-56
2021/05/12 07:37:00;;;;;;;28.10;10.57;;;;;;;;;;5113737;28;20036;-56
2021/05/12 07:39:29;;;;;;;26.48;7.78;;;;;;;;;;5112273;28;20028;-55
2021/05/12 07:41:57;;;;;;;21.33;6.55;;;;;;;;;;5113823;28;20028;-56
2021/05/12 07:44:23;;;;;;;23.23;9.15;;;;;;;;;;5114771;28;20438;-55
2021/05/12 07:46:50;;;;;;;16.80;6.72;;;;;;;;;;5117894;28;20019;-55
2021/05/12 07:49:16;;;;;;;15.35;4.90;;;;;;;;;;5117646;28;20027;-55
2021/05/12 07:51:42;;;;;;;13.68;5.65;;;;;;;;;;5117937;28;20032;-55
2021/05/12 07:54:09;;;;;;;18.15;6.22;;;;;;;;;;5117939;28;20367;-55
2021/05/12 07:56:35;;;;;;;11.45;4.53;;;;;;;;;;5117707;28;20061;-57
2021/05/12 07:59:01;;;;;;;7.88;3.42;;;;;;;;;;5117697;28;20055;-55
2021/05/12 08:01:30;;;;;;;12.05;4.30;;;;;;;;;;5117466;28;20035;-55
2021/05/12 08:03:56;;;;;;;14.48;3.60;;;;;;;;;;5117877;28;20024;-55
2021/05/12 08:06:23;;;;;;;7.00;2.60;;;;;;;;;;5117633;28;20158;-56
2021/05/12 08:08:49;;;;;;;14.48;3.90;;;;;;;;;;5117583;28;20020;-55
2021/05/12 08:11:15;;;;;;;10.13;3.45;;;;;;;;;;5117113;28;20055;-56
2021/05/12 08:13:41;;;;;;;9.90;3.55;;;;;;;;;;5117707;28;20463;-55
2021/05/12 08:16:07;;;;;;;37.42;5.35;;;;;;;;;;5117383;28;20475;-56
2021/05/12 08:18:34;;;;;;;8.52;3.25;;;;;;;;;;5117134;28;20483;-57
2021/05/12 08:21:00;;;;;;;11.48;3.80;;;;;;;;;;5117212;28;20016;-56
2021/05/12 08:23:26;;;;;;;11.98;5.28;;;;;;;;;;5117224;28;20016;-56
2021/05/12 08:25:52;;;;;;;12.77;4.13;;;;;;;;;;5117099;28;20027;-56
2021/05/12 08:28:18;;;;;;;12.68;3.95;;;;;;;;;;5117196;28;20020;-56
2021/05/12 08:30:46;;;;;;;9.73;2.78;;;;;;;;;;5116971;28;20065;-56
2021/05/12 08:33:13;;;;;;;13.18;3.63;;;;;;;;;;5116791;28;20095;-56
2021/05/12 08:35:40;;;;;;;10.13;2.85;;;;;;;;;;5116905;28;20032;-56
2021/05/12 08:38:06;;;;;;;10.05;3.78;;;;;;;;;;5116880;28;20479;-56
2021/05/12 08:40:33;;;;;;;9.88;2.47;;;;;;;;;;5116860;28;20486;-56
2021/05/12 08:43:01;;;;;;;16.63;2.97;;;;;;;;;;5116693;28;20123;-56
2021/05/12 08:45:28;;;;;;;12.57;2.85;;;;;;;;;;5116705;28;20094;-56
2021/05/12 08:47:54;;;;;;;7.28;2.70;;;;;;;;;;5116740;28;20032;-56
2021/05/12 08:50:21;;;;;;;6.60;2.58;;;;;;;;;;5116811;28;20035;-56
2021/05/12 08:52:49;;;;;;;9.23;2.85;;;;;;;;;;5116902;28;20054;-56
2021/05/12 08:55:15;;;;;;;6.97;2.47;;;;;;;;;;5116216;28;20016;-56
2021/05/12 08:57:41;;;;;;;10.45;2.33;;;;;;;;;;5115826;28;20486;-56
2021/05/12 09:00:08;;;;;;;13.27;3.00;;;;;;;;;;5116511;28;20022;-57
2021/05/12 09:02:34;;;;;;;15.38;2.80;;;;;;;;;;5116260;28;20026;-55
2021/05/12 09:05:02;;;;;;;12.45;3.53;;;;;;;;;;5116336;28;20498;-57
2021/05/12 09:07:31;;;;;;;11.98;3.33;;;;;;;;;;5114898;28;20057;-56
2021/05/12 09:09:58;;;;;;;10.38;3.08;;;;;;;;;;5095295;28;20373;-56
2021/05/12 09:12:24;;;;;;;9.05;2.83;;;;;;;;;;5095019;28;20052;-55
2021/05/12 09:14:56;;;;;;;11.88;2.55;;;;;;;;;;5095615;28;20031;-56
2021/05/12 09:17:31;;;;;;;10.55;2.63;;;;;;;;;;5095033;28;20035;-56
2021/05/12 09:19:58;;;;;;;110.45;79.57;;;;;;;;;;5093693;28;20012;-56
2021/05/12 09:22:24;;;;;;;63.97;42.97;;;;;;;;;;5095030;28;20032;-56
2021/05/12 09:25:04;;;;;;;96.43;61.67;;;;;;;;;;5095023;28;20020;-56
2021/05/12 09:27:30;;;;;;;11.05;4.82;;;;;;;;;;5092503;28;20025;-56
2021/05/12 09:29:59;;;;;;;10.60;2.95;;;;;;;;;;5094821;28;20091;-56
2021/05/12 09:32:27;;;;;;;5.35;1.80;;;;;;;;;;5094714;28;20024;-55
2021/05/12 09:34:58;;;;;;;12.88;2.63;;;;;;;;;;5094785;28;20051;-55
2021/05/12 09:37:33;;;;;;;7.70;2.70;;;;;;;;;;5094752;28;20089;-55
2021/05/12 09:40:09;;;;;;;34.47;4.45;;;;;;;;;;5094560;28;20087;-55
2021/05/12 09:42:38;;;;;;;11.50;3.95;;;;;;;;;;5092700;28;20020;-55
2021/05/12 09:45:10;;;;;;;17.50;7.18;;;;;;;;;;5094770;28;20043;-60
2021/05/12 09:47:36;;;;;;;9.48;4.22;;;;;;;;;;5094619;28;20065;-56
2021/05/12 09:50:10;;;;;;;12.60;6.10;;;;;;;;;;5094678;28;20016;-56
2021/05/12 09:52:36;;;;;;;15.45;8.20;;;;;;;;;;5079742;28;20016;-55
2021/05/12 09:55:04;;;;;;;23.10;10.70;;;;;;;;;;5115185;28;20023;-56
2021/05/12 09:57:32;;;;;;;11.30;4.25;;;;;;;;;;5115339;28;20031;-56
2021/05/12 09:59:58;;;;;;;16.75;10.68;;;;;;;;;;5115419;28;20048;-56
2021/05/12 10:02:27;;;;;;;8.93;4.88;;;;;;;;;;5115271;27;20020;-55
2021/05/12 10:04:59;;;;;;;13.95;5.05;;;;;;;;;;5115311;28;20067;-55
2021/05/12 10:07:26;;;;;;;6.93;2.45;;;;;;;;;;5114977;28;20023;-55
2021/05/12 10:09:55;;;;;;;13.50;3.90;;;;;;;;;;5114710;28;20058;-54
2021/05/12 10:12:25;;;;;;;11.13;3.03;;;;;;;;;;5114766;28;20422;-56
2021/05/12 10:14:52;;;;;;;26.48;9.45;;;;;;;;;;5114719;28;20084;-56
2021/05/12 10:17:19;;;;;;;12.57;3.75;;;;;;;;;;5114826;28;20031;-55
2021/05/12 10:19:46;;;;;;;18.42;6.43;;;;;;;;;;5114663;28;20059;-55
2021/05/12 10:22:13;;;;;;;18.80;9.68;;;;;;;;;;5114730;28;20024;-55
2021/05/12 10:24:40;;;;;;;15.95;4.07;;;;;;;;;;5114136;28;20020;-56
2021/05/12 10:27:08;;;;;;;20.05;8.15;;;;;;;;;;5114540;28;20016;-55
2021/05/12 10:29:36;;;;;;;17.25;6.60;;;;;;;;;;5114949;28;20359;-55
2021/05/12 10:32:14;;;;;;;13.52;6.00;;;;;;;;;;5114522;28;20020;-54
2021/05/12 10:34:40;;;;;;;31.13;16.38;;;;;;;;;;5114512;28;20608;-55
2021/05/12 10:37:21;;;;;;;33.58;15.15;;;;;;;;;;5114281;28;20395;-55
2021/05/12 10:39:54;;;;;;;13.85;5.00;;;;;;;;;;5114373;28;20072;-55
2021/05/12 10:42:39;;;;;;;17.83;7.78;;;;;;;;;;5114316;28;20031;-56
2021/05/12 10:45:07;;;;;;;17.40;5.38;;;;;;;;;;5114436;28;20027;-56
2021/05/12 10:47:37;;;;;;;13.43;3.17;;;;;;;;;;5114232;28;20058;-54
2021/05/12 10:50:04;;;;;;;9.32;2.30;;;;;;;;;;5114324;28;20455;-54
2021/05/12 10:52:30;;;;;;;6.90;2.22;;;;;;;;;;5083287;28;20151;-53
2021/05/12 10:54:56;;;;;;;5.05;2.30;;;;;;;;;;5057855;28;20024;-54
2021/05/12 10:57:40;;;;;;;27.02;6.70;;;;;;;;;;5057750;28;20033;-53
2021/05/12 11:00:09;;;;;;;13.77;2.58;;;;;;;;;;5058502;28;20063;-53
2021/05/12 11:02:50;;;;;;;17.80;2.78;;;;;;;;;;5057603;28;20028;-51
2021/05/12 11:05:17;;;;;;;10.25;3.63;;;;;;;;;;5058020;28;20020;-52
2021/05/12 11:08:02;;;;;;;28.33;12.50;;;;;;;;;;5057601;28;20028;-52
2021/05/12 11:10:50;;;;;;;14.85;6.78;;;;;;;;;;5057842;28;20097;-52
2021/05/12 11:13:23;;;;;;;19.90;9.23;;;;;;;;;;5058613;28;20047;-54
2021/05/12 11:15:53;;;;;;;19.65;9.95;;;;;;;;;;5057753;28;20028;-52
2021/05/12 11:18:34;;;;;;;26.75;16.35;;;;;;;;;;5057839;28;20031;-54
2021/05/12 11:21:20;;;;;;;31.90;18.15;;;;;;;;;;5057707;28;20036;-51
2021/05/12 11:24:07;;;;;;;52.42;32.90;;;;;;;;;;5058333;28;20032;-53
2021/05/12 11:31:57;;;;;;;60.05;24.60;;;;;;;;;;5058213;28;20035;-55
2021/05/12 11:34:29;;;;;;;17.67;7.40;;;;;;;;;;5057395;28;20040;-54
2021/05/12 11:37:09;;;;;;;52.50;23.05;;;;;;;;;;5057340;28;20045;-54
2021/05/12 11:39:36;;;;;;;76.68;45.67;;;;;;;;;;5058294;28;20443;-54
2021/05/12 11:42:02;;;;;;;21.85;10.65;;;;;;;;;;5057711;28;20029;-54
2021/05/12 11:44:28;;;;;;;52.35;33.35;;;;;;;;;;5057454;28;20039;-54
2021/05/12 11:46:54;;;;;;;17.08;11.02;;;;;;;;;;5057814;28;20019;-53
2021/05/12 11:49:22;;;;;;;22.92;10.02;;;;;;;;;;5057332;28;20358;-53
2021/05/12 11:51:49;;;;;;;22.90;12.13;;;;;;;;;;5057954;28;20984;-52
2021/05/12 11:54:17;;;;;;;58.95;35.58;;;;;;;;;;5057345;28;20028;-52
2021/05/12 11:56:49;;;;;;;18.50;11.77;;;;;;;;;;5057599;28;20852;-53
2021/05/12 11:59:22;;;;;;;43.58;17.42;;;;;;;;;;5054739;28;20040;-54
2021/05/12 12:01:51;;;;;;;40.38;17.50;;;;;;;;;;5057694;28;20334;-53
2021/05/12 12:05:03;;;;;;;60.65;32.30;;;;;;;;;;5057075;28;20016;-55
2021/05/12 12:07:05;;;;;;;29.65;19.63;;;;;;;;;;5050581;28;20035;-54
2021/05/12 12:09:31;;;;;;;10.32;2.05;;;;;;;;;;5056949;28;20409;-53
2021/05/12 12:12:01;;;;;;;10.30;5.40;;;;;;;;;;5057547;28;20079;-54
2021/05/12 12:14:37;;;;;;;21.27;8.05;;;;;;;;;;5057247;28;20590;-54
2021/05/12 12:17:09;;;;;;;12.68;3.28;;;;;;;;;;5056991;28;20358;-54
2021/05/12 12:19:36;;;;;;;15.23;10.32;;;;;;;;;;5057210;28;20028;-53
2021/05/12 12:22:02;;;;;;;34.30;6.25;;;;;;;;;;5057488;28;20028;-53
2021/05/12 12:24:29;;;;;;;9.45;4.63;;;;;;;;;;5054955;28;20024;-54
2021/05/12 12:26:59;;;;;;;26.33;8.02;;;;;;;;;;5056916;28;20028;-54
2021/05/12 12:29:27;;;;;;;24.00;12.38;;;;;;;;;;5057120;28;20135;-55
2021/05/12 12:31:54;;;;;;;9.82;4.35;;;;;;;;;;5059096;28;20165;-54
2021/05/12 12:34:20;;;;;;;17.80;4.57;;;;;;;;;;5060619;28;20090;-54
2021/05/12 12:36:50;;;;;;;13.75;4.80;;;;;;;;;;5060425;28;20043;-54
2021/05/12 12:39:16;;;;;;;7.15;2.13;;;;;;;;;;5060637;28;20080;-54
2021/05/12 12:41:48;;;;;;;10.35;2.70;;;;;;;;;;5061160;28;20032;-54
2021/05/12 12:44:14;;;;;;;10.57;4.57;;;;;;;;;;5060334;28;20051;-54
2021/05/12 12:46:41;;;;;;;7.95;2.50;;;;;;;;;;5061086;28;20039;-54
2021/05/12 12:49:09;;;;;;;6.38;3.15;;;;;;;;;;5060638;28;20464;-54
2021/05/12 12:51:38;;;;;;;9.57;4.05;;;;;;;;;;5060565;28;20112;-53
2021/05/12 12:54:04;;;;;;;2.45;1.40;;;;;;;;;;5060818;28;20026;-54
2021/05/12 12:56:31;;;;;;;10.32;3.28;;;;;;;;;;5059948;28;20036;-54
2021/05/12 12:59:11;;;;;;;5.28;1.40;;;;;;;;;;5060724;28;20025;-55
2021/05/12 13:01:38;;;;;;;6.00;2.47;;;;;;;;;;5060880;28;20139;-55
2021/05/12 13:04:33;;;;;;;10.07;1.77;;;;;;;;;;5059914;28;20118;-53
2021/05/12 13:07:03;;;;;;;9.73;1.98;;;;;;;;;;5019023;28;21498;-54
2021/05/12 13:09:29;;;;;;;8.02;1.20;;;;;;;;;;5018980;28;21681;-53
2021/05/12 13:11:56;;;;;;;7.97;1.98;;;;;;;;;;5006039;28;20095;-53
2021/05/12 13:14:23;;;;;;;8.38;1.33;;;;;;;;;;4999381;28;20037;-54
2021/05/12 13:16:49;;;;;;;7.05;1.58;;;;;;;;;;4999145;28;20045;-54
2021/05/12 13:19:22;;;;;;;2.55;1.05;;;;;;;;;;4999438;28;20083;-53
2021/05/12 13:21:54;;;;;;;4.70;1.52;;;;;;;;;;4999473;28;20547;-53
2021/05/12 13:24:25;;;;;;;4.03;1.38;;;;;;;;;;4998920;28;20034;-52
2021/05/12 13:26:58;;;;;;;1.30;0.77;;;;;;;;;;4999265;28;20816;-53
2021/05/12 13:29:24;;;;;;;3.22;1.05;;;;;;;;;;4986456;28;21027;-53
2021/05/12 13:31:52;;;;;;;4.35;1.20;;;;;;;;;;4999491;28;20160;-53
2021/05/12 13:34:19;;;;;;;7.22;1.20;;;;;;;;;;4998581;28;20773;-54
2021/05/12 13:36:48;;;;;;;2.63;1.08;;;;;;;;;;4998970;28;20141;-54
2021/05/12 13:39:14;;;;;;;3.50;1.48;;;;;;;;;;4998516;28;20067;-54
2021/05/12 13:41:41;;;;;;;2.25;1.40;;;;;;;;;;4999150;28;20033;-53
2021/05/12 13:44:07;;;;;;;7.07;4.97;;;;;;;;;;5013874;28;20037;-55
2021/05/12 13:46:33;;;;;;;5.28;3.47;;;;;;;;;;5019430;28;20033;-54
2021/05/12 13:49:00;;;;;;;33.13;19.65;;;;;;;;;;5019888;28;20703;-54
2021/05/12 13:51:28;;;;;;;25.10;7.32;;;;;;;;;;5019212;28;20032;-53
2021/05/12 13:54:13;;;;;;;12.60;6.32;;;;;;;;;;5020288;28;20111;-54
2021/05/12 13:57:03;;;;;;;19.95;10.20;;;;;;;;;;5019117;28;20792;-53
2021/05/12 14:04:42;;;;;;;32.08;19.33;;;;;;;;;;5019211;28;20032;-54
2021/05/12 14:07:08;;;;;;;19.90;10.50;;;;;;;;;;5018543;28;20758;-54
2021/05/12 14:09:40;;;;;;;14.75;7.93;;;;;;;;;;5019007;28;20033;-54
2021/05/12 14:12:11;;;;;;;2.95;2.03;;;;;;;;;;5047780;28;20474;-54
2021/05/12 14:17:16;;;;;;;10.90;4.72;;;;;;;;;;5058496;28;20040;-54
2021/05/12 14:19:42;;;;;;;15.23;7.57;;;;;;;;;;5058504;28;20048;-54
2021/05/12 14:22:08;;;;;;;40.70;23.35;;;;;;;;;;5058578;28;20039;-54
2021/05/12 14:24:35;;;;;;;20.63;10.70;;;;;;;;;;5058650;28;20571;-55
2021/05/12 14:27:02;;;;;;;19.10;10.25;;;;;;;;;;5058317;28;20028;-55
2021/05/12 14:29:40;;;;;;;7.35;3.38;;;;;;;;;;5058572;28;20774;-55
2021/05/12 14:32:06;;;;;;;13.32;7.43;;;;;;;;;;5058438;28;20043;-53
2021/05/12 14:34:33;;;;;;;78.95;42.42;;;;;;;;;;5057761;28;20521;-53
2021/05/12 14:36:59;;;;;;;58.25;35.15;;;;;;;;;;5058710;28;20537;-53
2021/05/12 14:39:28;;;;;;;355.58;175.43;;;;;;;;;;5057965;28;20020;-53
2021/05/12 14:41:54;;;;;;;50.05;28.15;;;;;;;;;;5058212;28;20085;-53
2021/05/12 14:44:20;;;;;;;13.25;6.63;;;;;;;;;;5057912;28;20024;-54
2021/05/12 14:46:46;;;;;;;433.83;315.63;;;;;;;;;;5058696;28;20024;-55
2021/05/12 14:49:12;;;;;;;63.72;35.53;;;;;;;;;;5057689;28;20103;-54